Time;durP1;ratioP1;P1;durP2;ratioP2;P2;SDS_P1;SDS_P2;PMS_P1;PMS_P2;Temp;Humidity;BMP_temperature;BMP_pressure;BME280_temperature;BME280_humidity;BME280_pressure;Samples;Min_cycle;Max_cycle;Signal;HPM_P1;HPM_P2
2021/06/13 00:00:13;;;;;;;0.20;0.20;;;18.90;94.60;;;;;;5058542;28;20025;-93
2021/06/13 00:02:40;;;;;;;0.10;0.10;;;18.90;95.30;;;;;;5058333;28;20069;-92
2021/06/13 00:05:07;;;;;;;0.32;0.32;;;19.00;95.60;;;;;;5058037;28;20111;-92
2021/06/13 00:07:33;;;;;;;0.20;0.20;;;19.00;95.50;;;;;;5058043;28;20576;-92
2021/06/13 00:09:58;;;;;;;0.47;0.47;;;19.00;95.60;;;;;;5058232;28;20111;-92
2021/06/13 00:12:24;;;;;;;0.20;0.20;;;18.90;96.00;;;;;;5058670;28;20145;-93
2021/06/13 00:14:50;;;;;;;0.10;0.10;;;18.90;96.60;;;;;;5057933;28;20477;-93
2021/06/13 00:17:17;;;;;;;0.10;0.10;;;18.90;96.80;;;;;;5058359;28;20024;-94
2021/06/13 00:19:43;;;;;;;0.38;0.38;;;19.00;97.10;;;;;;5058022;28;20063;-93
2021/06/13 00:22:09;;;;;;;0.10;0.10;;;19.10;97.10;;;;;;5057944;28;20020;-92
2021/06/13 00:24:35;;;;;;;0.20;0.20;;;19.10;97.00;;;;;;5057393;28;20032;-93
2021/06/13 00:27:01;;;;;;;0.10;0.10;;;19.30;96.70;;;;;;5057588;28;20029;-92
2021/06/13 00:29:26;;;;;;;1.27;0.40;;;19.30;96.40;;;;;;5056817;28;20054;-93
2021/06/13 00:31:52;;;;;;;0.52;0.50;;;19.30;96.10;;;;;;5058007;28;20024;-93
2021/06/13 00:34:18;;;;;;;0.20;0.20;;;19.20;96.30;;;;;;5057585;28;20029;-93
2021/06/13 00:36:43;;;;;;;0.10;0.10;;;19.10;96.50;;;;;;5057312;28;20016;-92
2021/06/13 00:39:09;;;;;;;1.25;0.22;;;19.10;96.60;;;;;;5057139;28;20116;-92
2021/06/13 00:41:35;;;;;;;0.10;0.10;;;19.10;96.30;;;;;;5057246;28;20024;-93
2021/06/13 00:44:00;;;;;;;0.17;0.17;;;19.20;96.20;;;;;;5057689;28;20481;-92
2021/06/13 00:46:26;;;;;;;0.10;0.10;;;19.20;95.70;;;;;;5057091;28;20116;-92
2021/06/13 00:48:52;;;;;;;0.35;0.35;;;19.10;95.40;;;;;;5057218;28;20481;-92
2021/06/13 00:51:17;;;;;;;1.30;1.08;;;19.20;95.20;;;;;;5057224;28;20492;-92
2021/06/13 00:53:44;;;;;;;0.47;0.30;;;19.00;94.70;;;;;;5057362;28;20025;-93
2021/06/13 00:56:10;;;;;;;1.15;0.47;;;18.90;94.60;;;;;;5057588;28;20024;-92
2021/06/13 00:58:36;;;;;;;0.40;0.40;;;18.80;94.50;;;;;;5057418;28;20021;-92
2021/06/13 01:01:02;;;;;;;1.95;1.45;;;18.80;94.30;;;;;;5057418;28;20020;-92
2021/06/13 01:03:27;;;;;;;6.53;2.22;;;18.70;93.40;;;;;;5057251;28;20128;-93
2021/06/13 01:05:53;;;;;;;0.28;0.28;;;18.70;93.50;;;;;;5057154;28;20397;-92
2021/06/13 01:08:43;;;;;;;1.08;1.02;;;18.70;93.20;;;;;;5056584;28;20036;-92
2021/06/13 01:11:18;;;;;;;0.30;0.30;;;18.60;93.20;;;;;;5057384;28;20024;-92
2021/06/13 01:13:56;;;;;;;6.13;1.40;;;18.50;93.60;;;;;;5057231;28;20602;-93
2021/06/13 01:16:40;;;;;;;0.28;0.28;;;18.60;93.60;;;;;;5072192;28;20017;-93
2021/06/13 01:19:22;;;;;;;1.17;0.93;;;18.70;93.20;;;;;;5080770;28;20035;-93
2021/06/13 01:22:14;;;;;;;0.30;0.30;;;18.60;93.40;;;;;;5067652;28;20127;-92
2021/06/13 01:25:06;;;;;;;1.52;1.05;;;18.60;93.30;;;;;;5057265;28;20105;-92
2021/06/13 01:28:12;;;;;;;0.20;0.20;;;18.80;92.90;;;;;;5027192;28;20037;-92
2021/06/13 01:30:38;;;;;;;0.20;0.20;;;18.80;92.80;;;;;;5057247;28;20443;-93
2021/06/13 01:33:15;;;;;;;0.10;0.10;;;18.90;93.00;;;;;;5056415;28;20096;-92
2021/06/13 01:35:43;;;;;;;0.63;0.63;;;19.00;92.80;;;;;;5057133;28;20452;-92
2021/06/13 01:38:12;;;;;;;0.10;0.10;;;18.90;92.10;;;;;;5056435;28;20501;-93
2021/06/13 01:40:41;;;;;;;0.20;0.20;;;18.80;92.80;;;;;;5056014;28;20036;-93
2021/06/13 01:43:08;;;;;;;0.50;0.50;;;18.80;92.50;;;;;;5056337;28;20503;-92
2021/06/13 01:45:37;;;;;;;5.93;0.55;;;18.70;92.70;;;;;;5056325;28;20096;-92
2021/06/13 01:48:06;;;;;;;0.10;0.10;;;18.70;94.50;;;;;;5056124;28;20024;-92
2021/06/13 01:50:32;;;;;;;1.25;0.98;;;18.80;94.10;;;;;;5056449;28;20060;-93
2021/06/13 01:53:05;;;;;;;2.10;1.25;;;18.80;93.80;;;;;;5056213;28;20059;-93
2021/06/13 01:55:32;;;;;;;0.75;0.75;;;18.70;94.10;;;;;;5056379;28;20031;-93
2021/06/13 01:58:00;;;;;;;0.65;0.65;;;18.50;94.10;;;;;;5056170;28;20025;-92
2021/06/13 02:00:26;;;;;;;0.68;0.63;;;18.30;94.90;;;;;;5055937;28;20020;-92
2021/06/13 02:02:54;;;;;;;0.15;0.15;;;18.30;95.20;;;;;;5055734;28;20556;-92
2021/06/13 02:05:24;;;;;;;1.25;0.85;;;18.20;95.60;;;;;;5056692;28;20025;-93
2021/06/13 02:07:52;;;;;;;0.90;0.88;;;18.20;95.70;;;;;;5056047;28;20037;-92
2021/06/13 02:10:20;;;;;;;0.63;0.50;;;18.20;95.70;;;;;;5055971;28;20024;-92
2021/06/13 02:12:47;;;;;;;1.42;1.30;;;18.10;96.20;;;;;;5055696;28;20029;-92
2021/06/13 02:15:17;;;;;;;0.20;0.20;;;18.20;96.40;;;;;;5056023;28;20070;-92
2021/06/13 02:17:46;;;;;;;0.43;0.43;;;18.10;96.40;;;;;;5065579;28;20029;-91
2021/06/13 02:20:13;;;;;;;0.90;0.90;;;18.30;95.90;;;;;;5065216;28;20024;-92
2021/06/13 02:22:40;;;;;;;0.22;0.22;;;18.20;96.00;;;;;;5063417;28;20031;-92
2021/06/13 02:25:08;;;;;;;0.10;0.10;;;18.20;96.10;;;;;;5055998;28;20029;-93
2021/06/13 02:27:35;;;;;;;0.10;0.10;;;18.40;96.10;;;;;;5055934;28;20068;-92
2021/06/13 02:30:04;;;;;;;1.10;1.00;;;18.40;95.70;;;;;;5056073;28;20078;-92
2021/06/13 02:32:33;;;;;;;2.20;1.38;;;18.30;95.50;;;;;;5055834;28;20024;-92
2021/06/13 02:34:59;;;;;;;0.50;0.50;;;18.20;95.70;;;;;;5055740;28;20552;-92
2021/06/13 02:37:26;;;;;;;1.08;1.00;;;18.20;95.90;;;;;;5055742;28;20078;-92
2021/06/13 02:39:52;;;;;;;0.50;0.50;;;18.20;96.00;;;;;;5055705;28;20465;-92
2021/06/13 02:42:18;;;;;;;0.85;0.50;;;18.20;96.10;;;;;;5055478;28;20393;-92
2021/06/13 02:44:45;;;;;;;0.60;0.60;;;18.30;95.80;;;;;;5055500;28;20029;-92
2021/06/13 02:47:12;;;;;;;0.20;0.20;;;18.30;95.70;;;;;;5055908;28;20074;-92
2021/06/13 02:49:38;;;;;;;0.15;0.15;;;18.20;96.20;;;;;;5055429;28;20036;-93
2021/06/13 02:52:27;;;;;;;0.82;0.82;;;18.30;95.80;;;;;;5055810;28;20028;-92
2021/06/13 02:54:58;;;;;;;1.77;0.65;;;18.30;95.50;;;;;;5059595;28;20017;-93
2021/06/13 02:57:48;;;;;;;0.10;0.10;;;18.30;95.80;;;;;;5059526;28;20056;-93
2021/06/13 03:00:15;;;;;;;11.18;2.00;;;18.30;95.80;;;;;;5060065;28;20025;-92
2021/06/13 03:02:47;;;;;;;0.20;0.20;;;18.30;95.50;;;;;;5059965;28;20021;-93
2021/06/13 03:05:13;;;;;;;0.73;0.73;;;18.30;95.70;;;;;;5059470;28;20027;-92
2021/06/13 03:07:41;;;;;;;0.10;0.10;;;18.20;95.70;;;;;;5059702;28;20090;-92
2021/06/13 03:10:10;;;;;;;0.40;0.40;;;18.30;96.30;;;;;;5059534;28;20615;-93
2021/06/13 03:12:37;;;;;;;0.63;0.30;;;18.30;95.40;;;;;;5059528;28;20028;-92
2021/06/13 03:15:04;;;;;;;2.00;1.80;;;18.30;95.40;;;;;;5059234;28;20052;-92
2021/06/13 03:17:31;;;;;;;0.10;0.10;;;18.30;95.30;;;;;;5059323;28;20031;-92
2021/06/13 03:19:57;;;;;;;0.50;0.50;;;18.00;96.10;;;;;;5058920;28;20029;-92
2021/06/13 03:22:23;;;;;;;2.20;1.20;;;18.10;96.30;;;;;;5059380;28;20066;-92
2021/06/13 03:24:51;;;;;;;1.75;1.65;;;18.10;96.50;;;;;;5059240;28;20024;-93
2021/06/13 03:27:17;;;;;;;0.22;0.22;;;18.00;96.40;;;;;;5058808;28;20021;-93
2021/06/13 03:29:46;;;;;;;0.47;0.40;;;18.00;96.30;;;;;;5058791;28;20501;-93
2021/06/13 03:32:12;;;;;;;2.83;2.25;;;18.10;95.90;;;;;;5059023;28;20028;-92
2021/06/13 03:34:39;;;;;;;0.10;0.10;;;17.90;96.70;;;;;;5059269;28;20036;-92
2021/06/13 03:37:07;;;;;;;0.10;0.10;;;17.90;96.80;;;;;;5058900;28;20046;-92
2021/06/13 03:39:35;;;;;;;0.20;0.20;;;17.90;96.60;;;;;;5058920;28;20027;-92
2021/06/13 03:42:01;;;;;;;0.20;0.20;;;17.90;96.70;;;;;;5058548;28;20020;-92
2021/06/13 03:44:29;;;;;;;0.10;0.10;;;17.90;96.90;;;;;;5058621;28;20027;-92
2021/06/13 03:46:56;;;;;;;0.32;0.30;;;17.90;96.30;;;;;;5058692;28;20032;-92
2021/06/13 03:49:23;;;;;;;0.32;0.32;;;17.80;96.30;;;;;;5058306;28;20024;-93
2021/06/13 03:51:51;;;;;;;0.65;0.65;;;17.70;96.20;;;;;;5058841;28;20020;-93
2021/06/13 03:54:17;;;;;;;3.08;1.08;;;17.70;96.60;;;;;;5058544;28;20119;-93
2021/06/13 03:56:52;;;;;;;0.40;0.40;;;17.70;96.10;;;;;;5058833;28;20511;-92
2021/06/13 03:59:24;;;;;;;4.70;2.30;;;17.60;95.70;;;;;;5058372;28;20507;-92
2021/06/13 04:01:50;;;;;;;1.60;0.82;;;17.60;95.90;;;;;;5058269;28;20020;-92
2021/06/13 04:04:17;;;;;;;0.20;0.20;;;17.70;95.30;;;;;;5058146;28;20032;-92
2021/06/13 04:06:46;;;;;;;0.15;0.15;;;17.70;95.20;;;;;;5058544;28;20084;-92
2021/06/13 04:09:14;;;;;;;0.10;0.10;;;17.70;94.50;;;;;;5058938;28;20028;-92
2021/06/13 04:11:42;;;;;;;2.97;1.90;;;17.70;94.00;;;;;;5059144;28;20032;-92
2021/06/13 04:14:11;;;;;;;0.30;0.30;;;17.70;93.50;;;;;;5060981;28;20503;-93
2021/06/13 04:16:38;;;;;;;1.48;0.52;;;17.70;93.60;;;;;;5060055;28;20435;-92
2021/06/13 04:19:04;;;;;;;0.20;0.20;;;17.60;93.10;;;;;;5059007;28;20436;-92
2021/06/13 04:21:30;;;;;;;1.40;1.30;;;17.50;93.20;;;;;;5058978;28;20056;-92
2021/06/13 04:23:59;;;;;;;3.60;0.65;;;17.30;93.40;;;;;;5059014;28;20028;-92
2021/06/13 04:26:26;;;;;;;0.50;0.50;;;17.30;93.60;;;;;;5058882;28;20036;-92
2021/06/13 04:28:52;;;;;;;1.58;0.30;;;17.40;93.50;;;;;;5058205;28;20020;-92
2021/06/13 04:31:19;;;;;;;2.78;0.60;;;17.50;93.20;;;;;;5058804;28;20504;-92
2021/06/13 04:33:46;;;;;;;0.75;0.75;;;17.50;93.30;;;;;;5057884;28;20029;-92
2021/06/13 04:36:14;;;;;;;1.13;1.10;;;17.60;93.30;;;;;;5058384;28;20031;-92
2021/06/13 04:38:40;;;;;;;0.20;0.20;;;17.70;92.90;;;;;;5058472;28;20048;-92
2021/06/13 04:41:07;;;;;;;0.10;0.10;;;17.90;92.60;;;;;;5058967;28;20115;-92
2021/06/13 04:43:35;;;;;;;0.00;0.00;;;18.00;92.30;;;;;;5058399;28;20076;-92
2021/06/13 04:46:01;;;;;;;0.28;0.28;;;18.10;92.00;;;;;;5058149;28;20047;-93
2021/06/13 04:48:27;;;;;;;0.63;0.63;;;18.10;92.10;;;;;;5058132;28;20031;-92
2021/06/13 04:50:54;;;;;;;0.10;0.10;;;17.90;92.30;;;;;;5058674;28;20024;-92
2021/06/13 04:53:20;;;;;;;0.63;0.60;;;18.10;92.10;;;;;;5058834;28;20111;-92
2021/06/13 04:55:53;;;;;;;4.72;2.63;;;18.10;91.90;;;;;;5058227;28;20052;-92
2021/06/13 04:58:25;;;;;;;1.33;1.23;;;18.00;91.60;;;;;;5074428;28;20024;-92
2021/06/13 05:00:52;;;;;;;0.10;0.10;;;17.70;92.20;;;;;;5058288;28;20055;-92
2021/06/13 05:03:19;;;;;;;2.25;1.23;;;17.60;93.10;;;;;;5057956;28;20032;-92
2021/06/13 05:05:45;;;;;;;0.10;0.10;;;17.70;92.70;;;;;;5057679;28;20040;-92
2021/06/13 05:08:11;;;;;;;5.00;4.07;;;17.70;92.90;;;;;;5057146;28;20048;-92
2021/06/13 05:10:36;;;;;;;0.63;0.57;;;17.70;92.50;;;;;;5057855;28;20477;-92
2021/06/13 05:13:14;;;;;;;0.13;0.13;;;17.70;92.90;;;;;;5057396;28;20173;-92
2021/06/13 05:15:40;;;;;;;1.08;1.08;;;17.60;92.90;;;;;;5057392;28;20021;-92
2021/06/13 05:18:06;;;;;;;0.10;0.10;;;17.80;93.00;;;;;;5057915;28;20423;-92
2021/06/13 05:20:31;;;;;;;0.10;0.10;;;18.00;92.40;;;;;;5057759;28;20020;-92
2021/06/13 05:25:43;;;;;;;0.82;0.82;;;18.30;91.90;;;;;;5068958;28;20098;-74
2021/06/13 05:28:09;;;;;;;0.55;0.55;;;18.20;91.20;;;;;;5054955;28;20024;-74
2021/06/13 05:30:36;;;;;;;4.03;0.65;;;17.90;91.70;;;;;;5072942;28;20470;-74
2021/06/13 05:33:02;;;;;;;0.20;0.20;;;18.00;92.50;;;;;;5072725;28;20036;-74
2021/06/13 05:35:28;;;;;;;2.33;1.70;;;18.20;92.00;;;;;;5072801;28;20502;-74
2021/06/13 05:37:54;;;;;;;0.90;0.90;;;18.10;91.70;;;;;;5054769;28;20024;-73
2021/06/13 05:40:21;;;;;;;0.10;0.10;;;18.20;91.30;;;;;;5073002;28;20029;-74
2021/06/13 05:42:53;;;;;;;0.98;0.30;;;18.20;90.80;;;;;;5072445;28;20032;-74
2021/06/13 05:45:22;;;;;;;9.07;2.83;;;18.30;90.80;;;;;;5054814;28;20028;-74
2021/06/13 05:47:48;;;;;;;0.20;0.20;;;18.40;90.60;;;;;;5054414;28;20484;-74
2021/06/13 05:50:15;;;;;;;0.30;0.30;;;18.50;90.20;;;;;;5037939;28;20373;-74
2021/06/13 05:52:41;;;;;;;0.40;0.40;;;18.50;90.30;;;;;;5072388;28;20012;-74
2021/06/13 05:55:08;;;;;;;2.40;0.90;;;18.50;90.00;;;;;;5072190;28;20486;-74
2021/06/13 05:57:34;;;;;;;0.30;0.30;;;18.70;89.80;;;;;;5054356;28;20561;-74
2021/06/13 06:00:11;;;;;;;3.60;1.17;;;18.50;89.40;;;;;;5054388;28;20020;-73
2021/06/13 06:02:38;;;;;;;0.10;0.10;;;18.50;89.60;;;;;;5072340;28;20060;-74
2021/06/13 06:05:05;;;;;;;1.35;1.25;;;18.50;90.00;;;;;;5054439;28;20027;-74
2021/06/13 06:07:31;;;;;;;1.27;0.93;;;18.40;89.60;;;;;;5072044;28;20384;-74
2021/06/13 06:09:57;;;;;;;0.20;0.20;;;18.40;90.10;;;;;;5054438;28;20032;-74
2021/06/13 06:12:23;;;;;;;0.55;0.30;;;18.40;90.20;;;;;;5054096;28;20032;-74
2021/06/13 06:14:49;;;;;;;0.40;0.40;;;18.60;90.30;;;;;;5072025;28;20020;-74
2021/06/13 06:17:15;;;;;;;0.10;0.10;;;18.60;90.10;;;;;;5071969;28;20071;-74
2021/06/13 06:19:41;;;;;;;0.10;0.10;;;18.40;90.90;;;;;;5054101;28;20407;-74
2021/06/13 06:22:07;;;;;;;0.82;0.82;;;18.40;91.50;;;;;;5054015;28;20471;-74
2021/06/13 06:24:34;;;;;;;0.20;0.20;;;18.40;91.00;;;;;;5072046;28;20036;-74
2021/06/13 06:27:00;;;;;;;5.57;1.15;;;18.50;90.80;;;;;;5071496;28;20025;-74
2021/06/13 06:29:26;;;;;;;0.13;0.13;;;18.50;90.40;;;;;;5053629;28;20028;-74
2021/06/13 06:31:53;;;;;;;1.02;0.75;;;18.40;89.70;;;;;;5071931;28;20025;-74
2021/06/13 06:34:18;;;;;;;1.55;1.45;;;18.60;90.00;;;;;;5053896;28;20193;-74
2021/06/13 06:36:45;;;;;;;0.10;0.10;;;18.50;88.90;;;;;;5071917;28;20092;-74
2021/06/13 06:39:11;;;;;;;1.70;1.08;;;18.40;90.00;;;;;;5071596;28;20017;-74
2021/06/13 06:41:38;;;;;;;0.65;0.65;;;18.50;89.90;;;;;;5072010;28;20024;-74
2021/06/13 06:44:05;;;;;;;1.25;1.25;;;18.70;89.60;;;;;;5059956;28;20480;-74
2021/06/13 06:46:31;;;;;;;0.30;0.30;;;18.70;89.00;;;;;;5068924;28;20021;-74
2021/06/13 06:48:57;;;;;;;0.10;0.10;;;18.80;88.40;;;;;;5037381;28;20434;-74
2021/06/13 06:51:23;;;;;;;0.10;0.10;;;19.00;87.50;;;;;;5076450;28;20077;-75
2021/06/13 06:53:49;;;;;;;1.35;0.90;;;19.20;87.70;;;;;;5047995;28;20028;-74
2021/06/13 06:56:15;;;;;;;2.17;2.08;;;19.20;86.00;;;;;;5059956;28;20024;-74
2021/06/13 06:58:40;;;;;;;1.70;1.60;;;19.20;82.90;;;;;;5053060;28;20029;-74
2021/06/13 07:01:06;;;;;;;1.17;0.70;;;19.30;83.10;;;;;;5053472;28;20082;-74
2021/06/13 07:03:32;;;;;;;0.10;0.10;;;19.30;82.40;;;;;;5069766;28;20016;-74
2021/06/13 07:05:58;;;;;;;0.98;0.32;;;19.10;80.10;;;;;;5063477;28;20426;-74
2021/06/13 07:08:24;;;;;;;0.40;0.40;;;19.20;80.10;;;;;;5053630;28;20020;-74
2021/06/13 07:10:49;;;;;;;0.10;0.10;;;19.30;81.30;;;;;;5071510;28;20112;-74
2021/06/13 07:13:15;;;;;;;1.23;1.05;;;19.70;80.40;;;;;;5053377;28;20036;-74
2021/06/13 07:15:41;;;;;;;0.75;0.75;;;19.80;79.50;;;;;;5053507;28;20016;-74
2021/06/13 07:18:06;;;;;;;1.38;0.85;;;19.60;78.10;;;;;;5053312;28;20438;-74
2021/06/13 07:20:32;;;;;;;4.57;1.00;;;19.50;78.00;;;;;;5053801;28;20100;-74
2021/06/13 07:22:58;;;;;;;0.55;0.55;;;19.20;78.40;;;;;;5071361;28;20468;-74
2021/06/13 07:25:24;;;;;;;0.32;0.32;;;18.80;80.90;;;;;;5070949;28;20028;-74
2021/06/13 07:27:50;;;;;;;0.38;0.38;;;18.70;82.00;;;;;;5053297;28;20047;-74
2021/06/13 07:30:17;;;;;;;0.10;0.10;;;18.90;81.60;;;;;;5082366;28;20016;-74
2021/06/13 07:32:44;;;;;;;1.77;0.82;;;19.30;79.70;;;;;;5091390;28;20020;-74
2021/06/13 07:35:12;;;;;;;1.60;0.65;;;19.60;77.30;;;;;;5091498;28;20027;-74
2021/06/13 07:37:39;;;;;;;5.60;2.67;;;19.80;76.60;;;;;;5091361;28;20112;-74
2021/06/13 07:40:06;;;;;;;0.20;0.20;;;19.50;76.10;;;;;;5059317;28;20534;-74
2021/06/13 07:42:32;;;;;;;1.00;0.82;;;19.40;77.40;;;;;;5077127;28;20112;-74
2021/06/13 07:44:58;;;;;;;1.88;1.25;;;19.40;76.00;;;;;;5094494;28;20052;-74
2021/06/13 07:47:24;;;;;;;2.17;1.67;;;19.40;75.10;;;;;;5076794;28;20119;-74
2021/06/13 07:49:50;;;;;;;10.75;1.00;;;19.30;74.00;;;;;;5095099;28;20397;-74
2021/06/13 07:52:17;;;;;;;0.88;0.88;;;19.30;74.50;;;;;;5076919;28;20024;-74
2021/06/13 07:54:42;;;;;;;0.47;0.47;;;19.30;74.70;;;;;;5057543;28;20063;-74
2021/06/13 07:57:08;;;;;;;0.20;0.20;;;19.70;75.00;;;;;;5056875;28;20311;-74
2021/06/13 07:59:39;;;;;;;0.30;0.30;;;20.20;72.80;;;;;;5074639;28;20021;-75
2021/06/13 08:02:05;;;;;;;15.48;1.92;;;20.50;72.10;;;;;;5074676;28;20027;-74
2021/06/13 08:04:35;;;;;;;0.98;0.30;;;20.30;69.00;;;;;;5074585;28;20082;-74
2021/06/13 08:07:02;;;;;;;3.63;1.27;;;20.20;71.40;;;;;;5056547;28;20029;-74
2021/06/13 08:09:28;;;;;;;4.97;1.55;;;19.70;72.40;;;;;;5074287;28;20024;-74
2021/06/13 08:11:54;;;;;;;0.65;0.65;;;19.50;73.10;;;;;;5074573;28;20073;-74
2021/06/13 08:14:20;;;;;;;3.60;0.90;;;19.20;74.40;;;;;;5074011;28;20021;-74
2021/06/13 08:16:46;;;;;;;1.15;1.08;;;19.30;75.10;;;;;;5074256;28;20482;-74
2021/06/13 08:19:11;;;;;;;0.20;0.20;;;19.40;75.60;;;;;;5074074;28;20024;-74
2021/06/13 08:21:37;;;;;;;1.38;1.38;;;19.40;75.60;;;;;;5056706;28;20499;-74
2021/06/13 08:24:04;;;;;;;0.10;0.10;;;19.40;75.00;;;;;;5081098;28;20028;-74
2021/06/13 08:26:31;;;;;;;0.03;0.03;;;19.40;75.60;;;;;;5073649;28;20033;-74
2021/06/13 08:29:01;;;;;;;0.00;0.00;;;19.60;76.30;;;;;;5073888;28;20032;-74
2021/06/13 08:31:28;;;;;;;1.88;0.52;;;19.90;75.30;;;;;;5055919;28;20476;-74
2021/06/13 08:33:54;;;;;;;0.60;0.60;;;20.20;74.30;;;;;;5090998;28;20028;-74
2021/06/13 08:36:20;;;;;;;0.35;0.35;;;20.60;72.50;;;;;;5093218;28;20099;-74
2021/06/13 08:38:48;;;;;;;0.20;0.20;;;21.00;72.40;;;;;;5093811;28;20059;-74
2021/06/13 08:41:15;;;;;;;1.15;0.88;;;21.00;70.60;;;;;;5092803;28;20043;-74
2021/06/13 08:43:41;;;;;;;3.33;1.52;;;20.60;70.10;;;;;;5089039;28;20063;-74
2021/06/13 08:46:07;;;;;;;2.25;1.30;;;20.30;71.50;;;;;;5039156;28;20476;-74
2021/06/13 08:48:33;;;;;;;6.32;3.13;;;20.30;72.00;;;;;;5073614;28;20028;-75
2021/06/13 08:51:01;;;;;;;2.75;2.05;;;20.00;73.90;;;;;;5046180;28;20036;-74
2021/06/13 08:53:27;;;;;;;0.95;0.22;;;19.70;74.30;;;;;;5081406;28;20016;-74
2021/06/13 08:55:54;;;;;;;0.10;0.10;;;19.90;75.10;;;;;;5093744;28;20380;-74
2021/06/13 08:58:20;;;;;;;0.63;0.63;;;20.30;73.90;;;;;;5093467;28;20023;-74
2021/06/13 09:00:47;;;;;;;3.85;1.95;;;20.20;74.30;;;;;;5075350;28;20035;-73
2021/06/13 09:03:13;;;;;;;4.07;1.48;;;20.20;72.70;;;;;;5093367;28;20020;-74
2021/06/13 09:05:41;;;;;;;1.02;0.65;;;20.10;73.80;;;;;;5078617;28;20081;-74
2021/06/13 09:08:09;;;;;;;0.20;0.20;;;20.10;74.00;;;;;;5038416;28;20123;-74
2021/06/13 09:10:41;;;;;;;0.60;0.43;;;20.30;73.00;;;;;;5055377;28;20111;-74
2021/06/13 09:13:17;;;;;;;6.35;2.20;;;20.30;72.20;;;;;;5073161;28;20479;-74
2021/06/13 09:15:48;;;;;;;3.65;2.50;;;20.10;73.00;;;;;;5073528;28;20067;-75
2021/06/13 09:18:39;;;;;;;6.20;2.45;;;19.90;74.30;;;;;;5054991;28;20024;-74
2021/06/13 09:21:13;;;;;;;0.65;0.30;;;20.00;73.30;;;;;;5072895;28;20035;-74
2021/06/13 09:23:41;;;;;;;0.25;0.25;;;20.50;71.10;;;;;;5072904;28;20040;-74
2021/06/13 09:26:09;;;;;;;1.05;0.95;;;20.90;70.20;;;;;;5072678;28;20048;-75
2021/06/13 09:28:38;;;;;;;1.15;1.05;;;20.90;70.00;;;;;;5054773;28;20039;-72
2021/06/13 09:31:05;;;;;;;0.10;0.10;;;20.70;71.00;;;;;;5072634;28;20102;-72
2021/06/13 09:33:34;;;;;;;1.00;1.00;;;20.60;70.30;;;;;;5058568;28;20051;-72
2021/06/13 09:36:02;;;;;;;1.33;0.75;;;21.00;69.90;;;;;;5092679;28;20119;-72
2021/06/13 09:38:32;;;;;;;0.38;0.38;;;21.30;67.70;;;;;;5074568;28;20020;-72
2021/06/13 09:41:00;;;;;;;1.45;1.20;;;21.40;67.60;;;;;;5074848;28;20021;-72
2021/06/13 09:43:27;;;;;;;0.13;0.13;;;21.50;67.20;;;;;;5092917;28;20032;-73
2021/06/13 09:45:57;;;;;;;0.43;0.43;;;21.40;67.30;;;;;;5092846;28;20024;-73
2021/06/13 09:48:23;;;;;;;1.02;0.93;;;21.90;65.30;;;;;;5092625;28;20043;-73
2021/06/13 09:50:54;;;;;;;3.28;1.95;;;22.10;65.10;;;;;;5092649;28;20070;-73
2021/06/13 09:53:28;;;;;;;0.17;0.17;;;22.30;64.10;;;;;;5074646;28;20386;-72
2021/06/13 09:56:04;;;;;;;0.55;0.55;;;22.40;65.70;;;;;;5074251;28;20050;-73
2021/06/13 09:58:31;;;;;;;0.25;0.25;;;22.80;62.80;;;;;;5074168;28;20023;-72
2021/06/13 10:01:08;;;;;;;0.40;0.40;;;22.40;63.50;;;;;;5074289;28;20020;-73
2021/06/13 10:03:39;;;;;;;0.10;0.10;;;22.70;64.80;;;;;;5092663;28;20031;-72
2021/06/13 10:06:07;;;;;;;0.10;0.10;;;23.20;63.10;;;;;;5092576;28;20052;-73
2021/06/13 10:08:35;;;;;;;2.83;1.90;;;23.70;61.90;;;;;;5092141;28;20230;-72
2021/06/13 10:11:02;;;;;;;5.25;2.30;;;23.70;57.90;;;;;;5092323;28;20024;-73
2021/06/13 10:13:42;;;;;;;0.93;0.90;;;23.80;58.50;;;;;;5074041;28;20032;-73
2021/06/13 10:16:09;;;;;;;0.30;0.30;;;24.20;59.20;;;;;;5062996;28;20028;-73
2021/06/13 10:18:42;;;;;;;9.77;2.50;;;24.00;59.20;;;;;;5081103;28;20016;-73
2021/06/13 10:21:09;;;;;;;0.57;0.57;;;23.90;58.00;;;;;;5076564;28;20017;-73
2021/06/13 10:23:36;;;;;;;2.33;1.02;;;23.90;58.80;;;;;;5071490;28;20020;-73
2021/06/13 10:26:04;;;;;;;1.75;1.65;;;23.90;58.80;;;;;;5051924;28;20025;-72
2021/06/13 10:28:30;;;;;;;0.20;0.20;;;24.00;58.30;;;;;;5033298;28;20392;-72
2021/06/13 10:30:56;;;;;;;4.15;2.35;;;24.60;56.20;;;;;;5034037;28;20033;-72
2021/06/13 10:33:27;;;;;;;0.60;0.55;;;24.30;54.90;;;;;;5044551;28;20029;-72
2021/06/13 10:35:56;;;;;;;0.20;0.20;;;24.40;55.00;;;;;;5071886;28;20024;-73
2021/06/13 10:38:22;;;;;;;4.28;1.00;;;24.60;55.50;;;;;;5071771;28;20016;-73
2021/06/13 10:40:48;;;;;;;1.35;0.50;;;24.30;54.40;;;;;;5053460;28;20032;-73
2021/06/13 10:43:24;;;;;;;1.23;0.68;;;24.70;52.20;;;;;;5071960;28;20500;-72
2021/06/13 10:45:51;;;;;;;1.00;0.88;;;24.30;51.50;;;;;;5053875;28;20025;-72
2021/06/13 10:48:18;;;;;;;0.30;0.30;;;24.70;52.50;;;;;;5075029;28;20016;-73
2021/06/13 10:50:44;;;;;;;0.60;0.43;;;24.10;54.40;;;;;;5078783;28;20190;-73
2021/06/13 10:53:11;;;;;;;0.10;0.10;;;24.20;55.30;;;;;;5071393;28;20422;-72
2021/06/13 10:55:51;;;;;;;0.85;0.85;;;24.00;51.00;;;;;;5053589;28;20020;-72
2021/06/13 10:58:46;;;;;;;0.13;0.13;;;24.90;52.10;;;;;;5036973;28;20424;-73
2021/06/13 11:01:28;;;;;;;0.75;0.60;;;24.70;51.00;;;;;;5071530;28;20020;-73
2021/06/13 11:03:58;;;;;;;3.67;1.45;;;24.70;49.50;;;;;;5071318;28;20430;-73
2021/06/13 11:06:48;;;;;;;3.25;0.80;;;24.50;48.60;;;;;;5071673;28;20021;-73
2021/06/13 11:09:15;;;;;;;0.30;0.30;;;24.40;47.50;;;;;;5071315;28;20021;-73
2021/06/13 11:11:45;;;;;;;0.30;0.30;;;24.60;45.50;;;;;;5053502;28;20534;-73
2021/06/13 11:14:29;;;;;;;1.48;0.73;;;25.20;46.60;;;;;;5055047;28;20049;-73
2021/06/13 11:16:58;;;;;;;1.77;0.80;;;25.40;46.90;;;;;;5075527;28;20020;-72
2021/06/13 11:19:27;;;;;;;1.33;0.90;;;25.30;49.40;;;;;;5075377;28;20099;-75
2021/06/13 11:22:15;;;;;;;0.45;0.45;;;25.80;48.50;;;;;;5074921;28;20078;-73
2021/06/13 11:24:48;;;;;;;1.85;0.90;;;25.60;44.90;;;;;;5063586;28;20087;-74
2021/06/13 11:27:14;;;;;;;0.60;0.60;;;25.20;44.80;;;;;;5037416;28;20143;-72
2021/06/13 11:29:55;;;;;;;0.75;0.63;;;25.40;45.20;;;;;;5072170;28;20064;-73
2021/06/13 11:32:40;;;;;;;;;;;25.90;45.30;;;;;;5057445;28;20502;-72
2021/06/13 11:35:37;;;;;;;0.65;0.35;;;25.80;45.50;;;;;;5057287;28;19912;-73
2021/06/13 11:38:09;;;;;;;2.30;0.88;;;25.80;45.90;;;;;;5041163;28;20036;-73
2021/06/13 11:40:46;;;;;;;0.35;0.35;;;26.00;45.50;;;;;;5057131;28;20480;-73
2021/06/13 11:43:14;;;;;;;1.92;0.40;;;25.70;45.60;;;;;;5057134;28;20017;-73
2021/06/13 11:45:53;;;;;;;0.20;0.20;;;25.60;45.70;;;;;;5074975;28;20086;-73
2021/06/13 11:48:26;;;;;;;0.10;0.10;;;25.90;44.60;;;;;;5056655;28;20232;-73
2021/06/13 11:51:08;;;;;;;0.30;0.30;;;26.10;43.50;;;;;;5074843;28;20495;-73
2021/06/13 11:53:56;;;;;;;0.17;0.17;;;25.70;44.70;;;;;;5074884;28;20044;-73
2021/06/13 11:56:36;;;;;;;0.60;0.60;;;25.80;44.80;;;;;;5074811;28;20028;-73
2021/06/13 11:59:21;;;;;;;1.35;1.25;;;25.50;42.10;;;;;;5074608;28;20095;-73
2021/06/13 12:01:58;;;;;;;0.55;0.52;;;25.70;43.50;;;;;;5074611;28;20047;-73
2021/06/13 12:04:27;;;;;;;1.95;0.50;;;25.30;45.90;;;;;;5074663;28;20492;-73
2021/06/13 12:06:54;;;;;;;2.70;0.75;;;25.70;46.20;;;;;;5039853;28;20028;-73
2021/06/13 12:09:21;;;;;;;2.28;0.90;;;25.60;43.50;;;;;;5074385;28;20053;-73
2021/06/13 12:11:50;;;;;;;1.02;0.82;;;25.10;43.90;;;;;;5074520;28;20031;-73
2021/06/13 12:14:42;;;;;;;0.10;0.10;;;24.90;45.40;;;;;;5056381;28;20021;-73
2021/06/13 12:17:11;;;;;;;0.13;0.13;;;25.40;45.50;;;;;;5074433;28;20020;-72
2021/06/13 12:19:39;;;;;;;0.70;0.70;;;26.00;45.10;;;;;;5074156;28;20029;-73
2021/06/13 12:27:29;;;;;;;0.70;0.20;;;25.60;42.80;;;;;;5056079;28;20369;-75
2021/06/13 12:30:09;;;;;;;0.03;0.03;;;25.70;41.00;;;;;;5074313;28;20104;-75
2021/06/13 12:32:36;;;;;;;0.25;0.25;;;26.00;39.60;;;;;;5074328;28;20040;-76
2021/06/13 12:35:16;;;;;;;0.10;0.10;;;26.20;40.90;;;;;;5056290;28;20668;-75
2021/06/13 12:38:03;;;;;;;2.45;1.40;;;26.00;39.60;;;;;;5056097;28;20021;-75
2021/06/13 12:40:34;;;;;;;3.30;0.40;;;25.50;39.90;;;;;;5056188;28;20028;-75
2021/06/13 12:43:00;;;;;;;1.40;0.50;;;25.30;41.40;;;;;;5074045;28;20365;-75
2021/06/13 12:45:25;;;;;;;0.30;0.30;;;25.50;42.00;;;;;;5055960;28;20396;-75
2021/06/13 12:47:56;;;;;;;0.47;0.47;;;25.30;40.70;;;;;;5073871;28;20030;-75
2021/06/13 12:50:23;;;;;;;0.75;0.25;;;25.30;41.60;;;;;;5073808;28;20472;-75
2021/06/13 12:52:51;;;;;;;1.20;0.93;;;25.50;40.90;;;;;;5073766;28;20535;-76
2021/06/13 12:55:18;;;;;;;0.30;0.30;;;25.00;40.40;;;;;;5073773;28;20079;-75
2021/06/13 12:57:49;;;;;;;0.73;0.60;;;24.60;41.70;;;;;;5073698;28;20111;-75
2021/06/13 13:00:15;;;;;;;0.10;0.10;;;24.30;42.50;;;;;;5055754;28;20021;-75
2021/06/13 13:02:41;;;;;;;0.28;0.28;;;24.50;43.40;;;;;;5073564;28;20024;-74
2021/06/13 13:05:15;;;;;;;0.10;0.10;;;24.60;43.30;;;;;;5055675;28;20073;-75